createdAt,value
2019-03-27T00:01:34.480Z,99.90
2019-03-27T00:04:02.935Z,99.90
2019-03-27T00:06:31.437Z,99.90
2019-03-27T00:08:59.863Z,99.90
2019-03-27T00:11:28.316Z,99.90
2019-03-27T00:13:56.757Z,99.90
2019-03-27T00:16:25.204Z,99.90
2019-03-27T00:18:53.641Z,99.90
2019-03-27T00:21:22.077Z,99.90
2019-03-27T00:23:50.508Z,99.90
2019-03-27T00:26:18.962Z,99.90
2019-03-27T00:28:47.387Z,99.90
2019-03-27T00:31:15.834Z,99.90
2019-03-27T00:33:44.284Z,99.90
2019-03-27T00:36:12.721Z,99.90
2019-03-27T00:38:41.163Z,99.90
2019-03-27T00:41:09.597Z,99.90
2019-03-27T00:43:38.020Z,99.90
2019-03-27T00:46:06.468Z,99.90
2019-03-27T00:48:34.953Z,99.90
2019-03-27T00:51:03.491Z,99.90
2019-03-27T00:53:31.931Z,99.90
2019-03-27T00:56:00.363Z,99.90
2019-03-27T00:58:28.813Z,99.90
2019-03-27T01:01:06.366Z,99.90
2019-03-27T01:03:34.817Z,99.90
2019-03-27T01:06:04.488Z,99.90
2019-03-27T01:08:32.946Z,99.90
2019-03-27T01:11:01.378Z,99.90
2019-03-27T01:13:29.813Z,99.90
2019-03-27T01:15:58.252Z,99.90
2019-03-27T01:18:26.704Z,99.90
2019-03-27T01:20:55.136Z,99.90
2019-03-27T01:23:23.576Z,99.90
2019-03-27T01:25:52.008Z,99.90
2019-03-27T01:28:20.471Z,99.90
2019-03-27T01:30:48.905Z,99.90
2019-03-27T01:33:17.358Z,99.90
2019-03-27T01:35:45.788Z,99.90
2019-03-27T01:38:14.234Z,99.90
2019-03-27T01:40:43.127Z,99.90
2019-03-27T01:43:11.572Z,99.90
2019-03-27T01:45:52.140Z,99.90
2019-03-27T01:48:10.210Z,99.90
2019-03-27T01:50:38.640Z,99.90
2019-03-27T01:53:07.094Z,99.90
2019-03-27T01:55:35.536Z,99.90
2019-03-27T01:58:03.973Z,99.90
2019-03-27T02:00:32.405Z,99.90
2019-03-27T02:03:00.848Z,99.90
2019-03-27T02:05:29.298Z,99.90
2019-03-27T02:07:57.739Z,99.90
2019-03-27T02:10:26.182Z,99.90
2019-03-27T02:12:54.625Z,99.90
2019-03-27T02:15:23.056Z,99.90
2019-03-27T02:17:51.505Z,99.90
2019-03-27T02:20:19.929Z,99.90
2019-03-27T02:22:48.372Z,99.90
2019-03-27T02:25:16.804Z,99.90
2019-03-27T02:27:45.258Z,99.90
2019-03-27T02:30:13.829Z,99.90
2019-03-27T02:32:42.260Z,99.90
2019-03-27T02:35:10.858Z,99.90
2019-03-27T02:37:39.296Z,99.90
2019-03-27T02:40:07.978Z,99.90
2019-03-27T02:42:36.478Z,99.90
2019-03-27T02:45:13.464Z,99.90
2019-03-27T02:47:43.062Z,99.90
2019-03-27T02:50:11.641Z,99.90
2019-03-27T02:52:40.066Z,99.90
2019-03-27T02:55:08.758Z,99.90
2019-03-27T02:57:37.257Z,99.90
2019-03-27T03:00:12.785Z,99.90
2019-03-27T03:02:41.299Z,99.90
2019-03-27T03:05:10.282Z,99.90
2019-03-27T03:07:38.734Z,99.90
2019-03-27T03:10:10.921Z,99.90
2019-03-27T03:12:39.348Z,99.90
2019-03-27T03:15:09.117Z,99.90
2019-03-27T03:17:37.549Z,99.90
2019-03-27T03:20:26.856Z,99.90
2019-03-27T03:23:14.666Z,99.90
2019-03-27T03:26:02.503Z,99.90
2019-03-27T03:28:50.282Z,99.90
2019-03-27T03:31:18.733Z,99.90
2019-03-27T03:33:47.463Z,99.90
2019-03-27T03:36:16.570Z,99.90
2019-03-27T03:38:45.070Z,99.90
2019-03-27T03:41:13.501Z,99.90
2019-03-27T03:43:41.951Z,99.90
2019-03-27T03:46:10.453Z,99.90
2019-03-27T03:48:38.895Z,99.90
2019-03-27T03:51:07.606Z,99.90
2019-03-27T03:53:36.163Z,99.90
2019-03-27T03:56:04.857Z,99.90
2019-03-27T03:58:36.428Z,99.90
2019-03-27T04:01:07.072Z,99.90
2019-03-27T04:03:36.117Z,99.90
2019-03-27T04:06:04.654Z,99.90
2019-03-27T04:08:33.080Z,99.90
2019-03-27T04:11:01.580Z,99.90
2019-03-27T04:13:30.047Z,99.90
2019-03-27T04:15:58.512Z,99.90
2019-03-27T04:18:27.027Z,99.90
2019-03-27T04:20:55.477Z,99.90
2019-03-27T04:23:23.921Z,99.90
2019-03-27T04:26:09.060Z,99.90
2019-03-27T04:28:22.525Z,99.90
2019-03-27T04:30:50.957Z,99.90
2019-03-27T04:33:19.377Z,99.90
2019-03-27T04:35:47.830Z,99.90
2019-03-27T04:38:16.262Z,99.90
2019-03-27T04:40:44.782Z,99.90
2019-03-27T04:43:13.295Z,99.90
2019-03-27T04:45:41.839Z,99.90
2019-03-27T04:48:10.272Z,99.90
2019-03-27T04:50:38.711Z,99.90
2019-03-27T04:53:07.132Z,99.90
2019-03-27T04:55:35.609Z,99.90
2019-03-27T04:58:04.053Z,99.90
2019-03-27T05:00:32.495Z,99.90
2019-03-27T05:03:00.932Z,99.90
2019-03-27T05:05:29.370Z,99.90
2019-03-27T05:07:57.801Z,99.90
2019-03-27T05:10:26.252Z,99.90
2019-03-27T05:12:54.683Z,99.90
2019-03-27T05:15:23.127Z,99.90
2019-03-27T05:17:51.552Z,99.90
2019-03-27T05:20:19.987Z,99.90
2019-03-27T05:22:48.427Z,99.90
2019-03-27T05:25:16.864Z,99.90
2019-03-27T05:27:45.311Z,99.90
2019-03-27T05:30:15.348Z,99.90
2019-03-27T05:32:43.802Z,99.90
2019-03-27T05:35:12.384Z,99.90
2019-03-27T05:37:40.830Z,99.90
2019-03-27T05:40:09.430Z,99.90
2019-03-27T05:42:37.876Z,99.90
2019-03-27T05:45:06.744Z,99.90
2019-03-27T05:47:35.207Z,99.90
2019-03-27T05:50:04.396Z,99.90
2019-03-27T05:52:32.894Z,99.90
2019-03-27T05:55:01.353Z,99.90
2019-03-27T05:57:29.792Z,99.90
2019-03-27T05:59:58.228Z,99.90
2019-03-27T06:02:26.706Z,99.90
2019-03-27T06:04:55.222Z,99.90
2019-03-27T06:07:23.657Z,99.90
2019-03-27T06:09:52.087Z,99.90
2019-03-27T06:12:20.531Z,99.90
2019-03-27T06:14:48.966Z,99.90
2019-03-27T06:17:17.411Z,99.90
2019-03-27T06:19:45.852Z,99.90
2019-03-27T06:22:15.199Z,99.90
2019-03-27T06:24:43.765Z,99.90
2019-03-27T06:27:12.208Z,99.90
2019-03-27T06:29:40.646Z,99.90
2019-03-27T06:32:09.097Z,99.90
2019-03-27T06:34:37.525Z,99.90
2019-03-27T06:37:05.960Z,99.90
2019-03-27T06:39:34.389Z,99.90
2019-03-27T06:42:02.864Z,99.90
2019-03-27T06:44:31.298Z,99.90
2019-03-27T06:46:59.742Z,99.90
2019-03-27T06:49:28.164Z,99.90
2019-03-27T06:51:56.591Z,99.90
2019-03-27T06:54:25.047Z,99.90
2019-03-27T06:56:53.486Z,99.90
2019-03-27T06:59:21.965Z,99.90
2019-03-27T07:01:50.555Z,99.90
2019-03-27T07:04:18.999Z,99.90
2019-03-27T07:06:47.445Z,99.90
2019-03-27T07:09:15.967Z,99.90
2019-03-27T07:11:44.394Z,99.90
2019-03-27T07:14:12.849Z,99.90
2019-03-27T07:16:41.277Z,99.90
2019-03-27T07:19:09.828Z,99.90
2019-03-27T07:21:38.283Z,99.90
2019-03-27T07:24:06.735Z,99.90
2019-03-27T07:26:35.160Z,99.90
2019-03-27T07:29:03.674Z,99.90
2019-03-27T07:31:32.202Z,99.90
2019-03-27T07:34:00.653Z,99.90
2019-03-27T07:36:29.101Z,99.90
2019-03-27T07:39:10.197Z,99.90
2019-03-27T07:41:27.708Z,99.90
2019-03-27T07:43:56.146Z,99.90
2019-03-27T07:46:24.596Z,99.90
2019-03-27T07:48:54.391Z,99.90
2019-03-27T07:51:22.975Z,99.90
2019-03-27T07:53:51.428Z,99.90
2019-03-27T07:56:19.940Z,99.90
2019-03-27T07:58:48.391Z,99.90
2019-03-27T08:01:16.823Z,99.90
2019-03-27T08:03:45.289Z,99.90
2019-03-27T08:06:13.721Z,99.90
2019-03-27T08:08:42.163Z,99.90
2019-03-27T08:11:10.597Z,99.90
2019-03-27T08:13:39.035Z,99.90
2019-03-27T08:16:07.463Z,99.90
2019-03-27T08:18:35.974Z,99.90
2019-03-27T08:21:04.399Z,99.90
2019-03-27T08:23:32.868Z,99.90
2019-03-27T08:26:01.306Z,99.90
2019-03-27T08:28:29.775Z,99.90
2019-03-27T08:30:58.261Z,99.90
2019-03-27T08:33:26.775Z,99.90
2019-03-27T08:35:55.205Z,99.90
2019-03-27T08:38:23.675Z,99.90
2019-03-27T08:40:52.178Z,99.90
2019-03-27T08:43:23.951Z,99.90
2019-03-27T08:45:50.764Z,99.90
2019-03-27T08:48:19.209Z,99.90
2019-03-27T08:50:47.645Z,99.90
2019-03-27T08:53:16.163Z,99.90
2019-03-27T08:55:44.607Z,99.90
2019-03-27T08:58:13.037Z,99.90
2019-03-27T09:00:47.448Z,99.90
2019-03-27T09:03:16.128Z,99.90
2019-03-27T09:05:44.637Z,99.90
2019-03-27T09:08:13.143Z,99.90
2019-03-27T09:10:42.203Z,99.90
2019-03-27T09:13:10.641Z,99.90
2019-03-27T09:15:39.085Z,99.90
2019-03-27T09:18:07.585Z,99.90
2019-03-27T09:20:36.037Z,99.90
2019-03-27T09:23:04.647Z,99.90
2019-03-27T09:25:33.096Z,99.90
2019-03-27T09:28:01.528Z,99.90
2019-03-27T09:30:30.046Z,99.90
2019-03-27T09:32:58.468Z,99.90
2019-03-27T09:35:26.912Z,99.90
2019-03-27T09:37:55.340Z,99.90
2019-03-27T09:40:23.792Z,99.90
2019-03-27T09:42:52.273Z,99.90
2019-03-27T09:45:20.811Z,99.90
2019-03-27T09:47:49.258Z,99.90
2019-03-27T09:50:18.716Z,99.90
2019-03-27T09:52:47.238Z,99.90
2019-03-27T09:55:16.194Z,99.90
2019-03-27T09:57:44.621Z,99.90
2019-03-27T10:00:13.356Z,99.90
2019-03-27T10:02:41.793Z,99.90
2019-03-27T10:05:10.375Z,99.90
2019-03-27T10:07:38.816Z,99.90
2019-03-27T10:10:07.693Z,99.90
2019-03-27T10:12:36.124Z,99.90
2019-03-27T10:15:07.406Z,99.90
2019-03-27T10:17:35.928Z,99.90
2019-03-27T10:20:05.162Z,99.90
2019-03-27T10:22:33.602Z,99.90
2019-03-27T10:25:02.025Z,99.90
2019-03-27T10:27:30.464Z,99.90
2019-03-27T10:29:58.896Z,99.90
2019-03-27T10:32:27.354Z,99.90
2019-03-27T10:34:55.794Z,99.90
2019-03-27T10:37:24.232Z,99.90
2019-03-27T10:39:52.671Z,99.90
2019-03-27T10:42:21.118Z,99.50
2019-03-27T10:44:49.612Z,98.30
2019-03-27T10:47:18.047Z,98.20
2019-03-27T10:49:46.471Z,98.70
2019-03-27T10:52:14.918Z,99.90
2019-03-27T10:54:43.345Z,98.80
2019-03-27T10:57:11.793Z,98.60
2019-03-27T10:59:40.229Z,99.40
2019-03-27T11:02:08.681Z,99.90
2019-03-27T11:04:37.105Z,99.00
2019-03-27T11:07:05.555Z,98.20
2019-03-27T11:09:33.985Z,98.20
2019-03-27T11:12:02.422Z,99.40
2019-03-27T11:14:37.953Z,98.70
2019-03-27T11:17:01.015Z,99.80
2019-03-27T11:19:29.453Z,99.60
2019-03-27T11:21:57.960Z,98.90
2019-03-27T11:24:26.391Z,99.40
2019-03-27T11:26:54.826Z,99.20
2019-03-27T11:29:23.265Z,98.90
2019-03-27T11:31:51.741Z,97.70
2019-03-27T11:34:20.226Z,97.80
2019-03-27T11:36:48.667Z,99.00
2019-03-27T11:39:17.164Z,97.20
2019-03-27T11:41:45.604Z,98.20
2019-03-27T11:44:14.039Z,98.10
2019-03-27T11:46:42.483Z,97.90
2019-03-27T11:49:10.909Z,97.50
2019-03-27T11:51:39.347Z,96.80
2019-03-27T11:54:07.781Z,96.40
2019-03-27T11:56:36.228Z,98.30
2019-03-27T11:59:04.724Z,95.40
2019-03-27T12:01:40.473Z,94.30
2019-03-27T12:04:03.312Z,95.40
2019-03-27T12:06:31.768Z,95.90
2019-03-27T12:09:00.263Z,95.20
2019-03-27T12:11:28.688Z,95.10
2019-03-27T12:13:57.133Z,95.30
2019-03-27T12:16:25.645Z,96.70
2019-03-27T12:18:54.079Z,96.20
2019-03-27T12:21:22.532Z,95.50
2019-03-27T12:23:50.988Z,95.90
2019-03-27T12:26:19.426Z,95.80
2019-03-27T12:28:47.893Z,95.70
2019-03-27T12:31:16.329Z,95.40
2019-03-27T12:33:44.780Z,94.70
2019-03-27T12:36:13.203Z,94.80
2019-03-27T12:38:41.658Z,94.50
2019-03-27T12:41:10.093Z,93.40
2019-03-27T12:43:38.545Z,93.80
2019-03-27T12:46:06.979Z,92.50
2019-03-27T12:48:35.402Z,94.30
2019-03-27T12:51:12.857Z,93.50
2019-03-27T12:53:34.055Z,93.70
2019-03-27T12:56:02.480Z,94.30
2019-03-27T12:58:30.964Z,93.40
2019-03-27T13:00:59.379Z,93.40
2019-03-27T13:03:27.823Z,91.40
2019-03-27T13:05:56.259Z,91.10
2019-03-27T13:08:24.708Z,94.00
2019-03-27T13:10:53.149Z,93.10
2019-03-27T13:13:22.597Z,92.70
2019-03-27T13:15:51.032Z,93.10
2019-03-27T13:18:19.473Z,93.10
2019-03-27T13:20:47.924Z,92.40
2019-03-27T13:23:16.376Z,92.70
2019-03-27T13:25:44.795Z,93.50
2019-03-27T13:28:13.237Z,93.30
2019-03-27T13:30:41.751Z,93.50
2019-03-27T13:33:10.256Z,93.00
2019-03-27T13:35:38.703Z,93.30
2019-03-27T13:38:07.153Z,92.80
2019-03-27T13:40:35.586Z,93.00
2019-03-27T13:43:04.025Z,90.80
2019-03-27T13:45:32.460Z,91.90
2019-03-27T13:48:00.901Z,91.90
2019-03-27T13:50:29.334Z,91.70
2019-03-27T13:52:57.863Z,91.00
2019-03-27T13:55:26.377Z,91.80
2019-03-27T13:57:54.945Z,91.20
2019-03-27T14:00:23.553Z,91.80
2019-03-27T14:02:51.980Z,91.50
2019-03-27T14:05:20.503Z,92.00
2019-03-27T14:07:48.923Z,91.40
2019-03-27T14:10:17.440Z,91.30
2019-03-27T14:12:45.944Z,91.30
2019-03-27T14:15:15.195Z,92.00
2019-03-27T14:17:43.772Z,92.10
2019-03-27T14:20:12.872Z,92.30
2019-03-27T14:22:41.295Z,92.70
2019-03-27T14:25:10.461Z,93.10
2019-03-27T14:27:38.901Z,91.70
2019-03-27T14:30:10.676Z,91.10
2019-03-27T14:32:39.116Z,90.90
2019-03-27T14:35:08.808Z,91.10
2019-03-27T14:37:37.307Z,91.00
2019-03-27T14:40:07.615Z,90.90
2019-03-27T14:42:36.175Z,91.10
2019-03-27T14:45:07.561Z,91.00
2019-03-27T14:47:36.156Z,91.20
2019-03-27T14:50:09.336Z,90.40
2019-03-27T14:52:37.841Z,91.60
2019-03-27T14:55:07.419Z,91.50
2019-03-27T14:57:36.130Z,92.00
2019-03-27T15:00:10.437Z,92.10
2019-03-27T15:02:38.932Z,91.80
2019-03-27T15:05:08.593Z,91.80
2019-03-27T15:07:37.025Z,92.30
2019-03-27T15:10:08.059Z,92.00
2019-03-27T15:12:36.932Z,92.60
2019-03-27T15:15:09.740Z,93.20
2019-03-27T15:17:38.449Z,93.30
2019-03-27T15:20:08.288Z,93.00
2019-03-27T15:22:36.724Z,93.40
2019-03-27T15:25:06.690Z,92.90
2019-03-27T15:27:35.131Z,92.50
2019-03-27T15:30:06.927Z,92.50
2019-03-27T15:32:35.370Z,92.40
2019-03-27T15:35:04.667Z,91.80
2019-03-27T15:37:33.089Z,92.50
2019-03-27T15:40:01.612Z,92.30
2019-03-27T15:42:30.036Z,92.10
2019-03-27T15:44:58.476Z,92.50
2019-03-27T15:47:26.961Z,91.90
2019-03-27T15:49:55.425Z,92.40
2019-03-27T15:52:35.878Z,92.70
2019-03-27T15:54:54.217Z,92.50
2019-03-27T15:57:22.767Z,92.80
2019-03-27T15:59:51.396Z,93.00
2019-03-27T16:02:19.893Z,93.00
2019-03-27T16:04:48.403Z,92.70
2019-03-27T16:07:16.866Z,93.40
2019-03-27T16:09:45.297Z,93.40
2019-03-27T16:12:14.941Z,93.10
2019-03-27T16:14:43.538Z,93.20
2019-03-27T16:17:13.603Z,93.60
2019-03-27T16:19:42.529Z,92.80
2019-03-27T16:22:11.104Z,93.60
2019-03-27T16:24:39.666Z,93.20
2019-03-27T16:27:08.720Z,93.50
2019-03-27T16:29:37.207Z,92.90
2019-03-27T16:32:06.303Z,93.00
2019-03-27T16:34:35.532Z,93.30
2019-03-27T16:37:04.173Z,93.30
2019-03-27T16:39:32.738Z,93.50
2019-03-27T16:42:01.357Z,93.20
2019-03-27T16:44:30.073Z,93.50
2019-03-27T16:46:58.730Z,93.30
2019-03-27T16:49:27.277Z,93.30
2019-03-27T16:51:56.534Z,93.60
2019-03-27T16:54:25.297Z,93.90
2019-03-27T16:56:53.892Z,94.10
2019-03-27T16:59:22.598Z,94.20
2019-03-27T17:01:51.198Z,94.00
2019-03-27T17:04:19.739Z,93.90
2019-03-27T17:06:48.394Z,94.50
2019-03-27T17:09:16.943Z,94.70
2019-03-27T17:11:45.475Z,94.90
2019-03-27T17:14:33.295Z,94.20
2019-03-27T17:17:21.091Z,94.40
2019-03-27T17:20:02.033Z,94.80
2019-03-27T17:22:42.939Z,94.80
2019-03-27T17:25:23.806Z,95.10
2019-03-27T17:28:04.948Z,95.20
2019-03-27T17:30:45.868Z,95.80
2019-03-27T17:33:26.687Z,96.20
2019-03-27T17:36:07.747Z,97.10
2019-03-27T17:38:48.624Z,97.40
2019-03-27T17:41:29.498Z,97.90
2019-03-27T17:44:10.337Z,97.90
2019-03-27T17:46:51.197Z,98.00
2019-03-27T17:49:31.909Z,99.00
2019-03-27T17:52:12.857Z,99.70
2019-03-27T17:54:54.176Z,99.70
2019-03-27T17:57:22.753Z,99.90
2019-03-27T17:59:51.307Z,99.80
2019-03-27T18:02:20.001Z,99.70
2019-03-27T18:04:48.474Z,99.90
2019-03-27T18:07:16.981Z,99.90
2019-03-27T18:09:45.534Z,99.90
2019-03-27T18:12:14.168Z,99.90
2019-03-27T18:14:42.763Z,99.90
2019-03-27T18:17:11.221Z,99.90
2019-03-27T18:19:39.647Z,99.90
2019-03-27T18:22:08.294Z,99.90
2019-03-27T18:24:36.826Z,99.90
2019-03-27T18:27:05.334Z,99.90
2019-03-27T18:29:33.818Z,99.90
2019-03-27T18:32:02.290Z,99.90
2019-03-27T18:34:30.810Z,99.90
2019-03-27T18:36:59.239Z,99.90
2019-03-27T18:39:27.748Z,99.90
2019-03-27T18:41:56.202Z,99.90
2019-03-27T18:44:24.656Z,99.90
2019-03-27T18:46:53.190Z,99.90
2019-03-27T18:49:21.626Z,99.90
2019-03-27T18:51:50.249Z,99.90
2019-03-27T18:54:18.704Z,99.90
2019-03-27T18:56:47.239Z,99.90
2019-03-27T18:59:15.694Z,99.90
2019-03-27T19:01:44.147Z,99.90
2019-03-27T19:04:12.608Z,99.90
2019-03-27T19:06:41.131Z,99.90
2019-03-27T19:09:09.727Z,99.90
2019-03-27T19:11:38.197Z,99.90
2019-03-27T19:14:06.644Z,99.90
2019-03-27T19:16:35.170Z,99.90
2019-03-27T19:19:03.690Z,99.90
2019-03-27T19:21:33.097Z,99.90
2019-03-27T19:24:13.213Z,99.90
2019-03-27T19:26:31.707Z,99.90
2019-03-27T19:29:00.202Z,99.90
2019-03-27T19:31:28.741Z,99.90
2019-03-27T19:33:57.270Z,99.90
2019-03-27T19:36:25.693Z,99.90
2019-03-27T19:38:54.148Z,99.90
2019-03-27T19:41:22.699Z,99.90
2019-03-27T19:43:51.257Z,99.90
2019-03-27T19:46:19.789Z,99.90
2019-03-27T19:48:48.222Z,99.90
2019-03-27T19:51:16.670Z,99.90
2019-03-27T19:53:45.238Z,99.90
2019-03-27T19:56:13.770Z,99.90
2019-03-27T19:58:42.335Z,99.90
2019-03-27T20:01:10.836Z,99.90
2019-03-27T20:03:39.300Z,99.90
2019-03-27T20:06:07.770Z,99.90
2019-03-27T20:08:36.280Z,99.90
2019-03-27T20:11:04.994Z,99.90
2019-03-27T20:13:33.466Z,99.90
2019-03-27T20:16:02.017Z,99.90
2019-03-27T20:18:30.488Z,99.90
2019-03-27T20:20:58.945Z,99.90
2019-03-27T20:23:27.391Z,99.90
2019-03-27T20:25:56.938Z,99.90
2019-03-27T20:28:25.452Z,99.90
2019-03-27T20:30:53.974Z,99.90
2019-03-27T20:33:22.492Z,99.90
2019-03-27T20:35:51.055Z,99.90
2019-03-27T20:38:19.572Z,99.90
2019-03-27T20:40:48.065Z,99.90
2019-03-27T20:43:16.606Z,99.90
2019-03-27T20:45:45.245Z,99.90
2019-03-27T20:48:13.712Z,99.90
2019-03-27T20:50:42.296Z,99.90
2019-03-27T20:53:10.878Z,99.90
2019-03-27T20:55:39.422Z,99.90
2019-03-27T20:58:07.925Z,99.90
2019-03-27T21:00:36.617Z,99.90
2019-03-27T21:03:07.197Z,99.90
2019-03-27T21:05:35.738Z,99.90
2019-03-27T21:08:04.275Z,99.90
2019-03-27T21:10:32.712Z,99.90
2019-03-27T21:13:01.169Z,99.90
2019-03-27T21:15:29.714Z,99.90
2019-03-27T21:17:58.227Z,99.90
2019-03-27T21:20:26.769Z,99.90
2019-03-27T21:22:55.294Z,99.90
2019-03-27T21:25:23.809Z,99.90
2019-03-27T21:27:52.333Z,99.90
2019-03-27T21:30:20.776Z,99.90
2019-03-27T21:32:50.177Z,99.90
2019-03-27T21:35:18.767Z,99.90
2019-03-27T21:37:47.261Z,99.90
2019-03-27T21:40:15.791Z,99.90
2019-03-27T21:42:44.249Z,99.90
2019-03-27T21:45:13.051Z,99.90
2019-03-27T21:47:42.614Z,99.90
2019-03-27T21:50:11.380Z,99.90
2019-03-27T21:52:39.852Z,99.90
2019-03-27T21:55:21.533Z,99.90
2019-03-27T21:57:38.849Z,99.90
2019-03-27T22:00:09.744Z,99.90
2019-03-27T22:02:38.222Z,99.90
2019-03-27T22:05:07.531Z,99.90
2019-03-27T22:07:36.086Z,99.90
2019-03-27T22:10:08.088Z,99.90
2019-03-27T22:12:38.268Z,99.90
2019-03-27T22:15:08.396Z,99.90
2019-03-27T22:17:36.904Z,99.90
2019-03-27T22:20:08.596Z,99.90
2019-03-27T22:22:37.038Z,99.90
2019-03-27T22:25:07.125Z,99.90
2019-03-27T22:27:35.582Z,99.90
2019-03-27T22:30:06.174Z,99.90
2019-03-27T22:32:34.658Z,99.90
2019-03-27T22:35:03.809Z,99.90
2019-03-27T22:37:32.274Z,99.90
2019-03-27T22:40:00.841Z,99.90
2019-03-27T22:42:29.305Z,99.90
2019-03-27T22:44:57.741Z,99.90
2019-03-27T22:47:26.199Z,99.90
2019-03-27T22:49:54.648Z,99.90
2019-03-27T22:52:23.132Z,99.90
2019-03-27T22:55:11.053Z,99.90
2019-03-27T22:57:58.840Z,99.90
2019-03-27T23:03:55.136Z,99.90
2019-03-27T23:06:42.910Z,99.90
2019-03-27T23:09:30.675Z,99.90
2019-03-27T23:12:18.444Z,99.90
2019-03-27T23:15:26.944Z,99.90
2019-03-27T23:18:14.786Z,99.90
2019-03-27T23:20:55.485Z,99.90
2019-03-27T23:23:36.519Z,99.90
2019-03-27T23:26:17.231Z,99.90
2019-03-27T23:28:58.017Z,99.90
2019-03-27T23:31:38.950Z,99.90
2019-03-27T23:34:19.601Z,99.90
2019-03-27T23:37:00.097Z,99.90
2019-03-27T23:39:28.550Z,99.90
2019-03-27T23:41:57.007Z,99.90
2019-03-27T23:44:25.443Z,99.90
2019-03-27T23:46:53.861Z,99.90
2019-03-27T23:49:22.295Z,99.90
2019-03-27T23:51:50.714Z,99.90
2019-03-27T23:54:19.169Z,99.90
2019-03-27T23:56:48.101Z,99.90
2019-03-27T23:59:16.594Z,99.90
